createdAt,value
2023-04-06T00:07:33.493Z,1016.37
2023-04-06T00:17:33.758Z,1016.29
2023-04-06T00:27:33.923Z,1016.16
2023-04-06T00:37:34.132Z,1016.18
2023-04-06T00:47:34.361Z,1016.15
2023-04-06T00:57:34.588Z,1016.12
2023-04-06T01:07:34.785Z,1016.13
2023-04-06T01:17:35.009Z,1016.11
2023-04-06T01:27:35.193Z,1016.07
2023-04-06T01:37:35.411Z,1015.88
2023-04-06T01:47:35.653Z,1015.88
2023-04-06T01:57:35.904Z,1015.87
2023-04-06T02:07:36.116Z,1015.87
2023-04-06T02:17:36.330Z,1015.85
2023-04-06T02:27:36.524Z,1015.87
2023-04-06T02:37:36.697Z,1015.77
2023-04-06T02:47:36.933Z,1015.69
2023-04-06T02:57:37.250Z,1015.70
2023-04-06T03:07:37.280Z,1015.67
2023-04-06T03:17:37.503Z,1015.65
2023-04-06T03:27:37.709Z,1015.72
2023-04-06T03:37:37.898Z,1015.73
2023-04-06T03:47:38.112Z,1015.70
2023-04-06T03:57:38.306Z,1015.80
2023-04-06T04:07:38.512Z,1015.91
2023-04-06T04:17:38.741Z,1015.90
2023-04-06T04:27:38.934Z,1015.98
2023-04-06T04:37:39.133Z,1016.04
2023-04-06T04:47:39.401Z,1016.11
2023-04-06T04:57:39.647Z,1016.12
2023-04-06T05:07:39.864Z,1016.16
2023-04-06T05:17:40.119Z,1016.10
2023-04-06T05:27:40.282Z,1016.31
2023-04-06T05:37:40.486Z,1016.31
2023-04-06T05:47:40.697Z,1016.35
2023-04-06T05:57:40.868Z,1016.35
2023-04-06T06:07:41.071Z,1016.42
2023-04-06T06:17:41.299Z,1016.43
2023-04-06T06:27:41.592Z,1016.50
2023-04-06T06:37:41.752Z,1016.45
2023-04-06T06:47:42.005Z,1016.45
2023-04-06T06:57:42.149Z,1016.45
2023-04-06T07:07:42.406Z,1016.48
2023-04-06T07:17:42.662Z,1016.49
2023-04-06T07:27:42.842Z,1016.50
2023-04-06T07:37:43.033Z,1016.57
2023-04-06T07:47:43.311Z,1016.49
2023-04-06T07:57:43.515Z,1016.40
2023-04-06T08:07:43.750Z,1016.37
2023-04-06T08:17:43.963Z,1016.32
2023-04-06T08:27:44.153Z,1016.20
2023-04-06T08:37:44.382Z,1016.17
2023-04-06T08:47:44.587Z,1016.14
2023-04-06T08:57:44.768Z,1016.11
2023-04-06T09:07:44.970Z,1015.97
2023-04-06T09:17:45.211Z,1015.92
2023-04-06T09:27:45.563Z,1015.83
2023-04-06T09:37:45.676Z,1015.71
2023-04-06T09:47:45.771Z,1015.69
2023-04-06T09:57:45.959Z,1015.56
2023-04-06T10:07:58.930Z,1015.43
2023-04-06T10:17:47.427Z,1015.47
2023-04-06T10:27:46.772Z,1015.34
2023-04-06T10:37:46.781Z,1015.19
2023-04-06T10:47:47.006Z,1015.21
2023-04-06T10:57:47.202Z,1015.19
2023-04-06T11:07:47.403Z,1015.08
2023-04-06T11:17:47.654Z,1015.01
2023-04-06T11:27:47.862Z,1014.95
2023-04-06T11:37:48.079Z,1014.91
2023-04-06T11:47:48.294Z,1014.82
2023-04-06T11:57:48.485Z,1014.74
2023-04-06T12:07:48.684Z,1014.68
2023-04-06T12:17:48.956Z,1014.69
2023-04-06T12:27:49.120Z,1014.59
2023-04-06T12:37:49.363Z,1014.51
2023-04-06T12:47:49.624Z,1014.49
2023-04-06T12:57:49.662Z,1014.46
2023-04-06T13:07:49.879Z,1014.39
2023-04-06T13:17:50.126Z,1014.36
2023-04-06T13:27:50.354Z,1014.23
2023-04-06T13:37:50.453Z,1014.18
2023-04-06T13:47:50.752Z,1014.08
2023-04-06T13:57:51.001Z,1013.99
2023-04-06T14:07:51.020Z,1013.95
2023-04-06T14:17:51.345Z,1013.92
2023-04-06T14:27:51.328Z,1013.91
2023-04-06T14:37:51.558Z,1013.95
2023-04-06T14:47:51.813Z,1013.90
2023-04-06T14:57:51.997Z,1013.91
2023-04-06T15:07:52.234Z,1013.95
2023-04-06T15:17:52.514Z,1014.00
2023-04-06T15:27:52.584Z,1014.05
2023-04-06T15:37:52.883Z,1013.99
2023-04-06T15:47:52.985Z,1014.03
2023-04-06T15:57:52.976Z,1014.09
2023-04-06T16:07:53.214Z,1014.15
2023-04-06T16:17:53.459Z,1014.16
2023-04-06T16:27:53.652Z,1014.21
2023-04-06T16:37:53.895Z,1014.19
2023-04-06T16:47:54.152Z,1014.19
2023-04-06T16:57:54.321Z,1014.30
2023-04-06T17:07:54.548Z,1014.35
2023-04-06T17:17:54.941Z,1014.31
2023-04-06T17:27:54.992Z,1014.25
2023-04-06T17:37:55.212Z,1014.36
2023-04-06T17:47:55.450Z,1014.38
2023-04-06T17:57:55.634Z,1014.50
2023-04-06T18:07:55.893Z,1014.65
2023-04-06T18:17:55.944Z,1014.73
2023-04-06T18:27:56.138Z,1014.86
2023-04-06T18:37:56.414Z,1015.01
2023-04-06T18:47:56.464Z,1014.98
2023-04-06T18:57:56.702Z,1015.15
2023-04-06T19:07:56.928Z,1015.17
2023-04-06T19:17:57.216Z,1015.39
2023-04-06T19:27:57.411Z,1015.52
2023-04-06T19:37:57.632Z,1015.54
2023-04-06T19:47:57.911Z,1015.52
2023-04-06T19:57:58.101Z,1015.54
2023-04-06T20:07:58.316Z,1015.69
2023-04-06T20:17:58.593Z,1015.58
2023-04-06T20:27:58.752Z,1015.60
2023-04-06T20:37:58.949Z,1015.57
2023-04-06T20:47:59.220Z,1015.53
2023-04-06T20:57:59.235Z,1015.55
2023-04-06T21:07:59.465Z,1015.54
2023-04-06T21:17:59.706Z,1015.48
2023-04-06T21:27:59.889Z,1015.40
2023-04-06T21:38:00.175Z,1015.43
2023-04-06T21:48:00.413Z,1015.41
2023-04-06T21:58:00.622Z,1015.37
2023-04-06T22:08:00.819Z,1015.38
2023-04-06T22:18:01.091Z,1015.28
2023-04-06T22:28:01.287Z,1015.21
2023-04-06T22:38:01.519Z,1015.22
2023-04-06T22:48:01.762Z,1015.18
2023-04-06T22:58:01.940Z,1015.17
2023-04-06T23:08:02.145Z,1015.08
2023-04-06T23:18:02.390Z,1015.11
2023-04-06T23:28:02.585Z,1015.01
2023-04-06T23:38:02.787Z,1014.97
2023-04-06T23:48:03.029Z,1014.90
2023-04-06T23:58:03.205Z,1014.78
